Time;durP1;ratioP1;P1;durP2;ratioP2;P2;SDS_P1;SDS_P2;PMS_P1;PMS_P2;Temp;Humidity;BMP_temperature;BMP_pressure;BME280_temperature;BME280_humidity;BME280_pressure;Samples;Min_cycle;Max_cycle;Signal;HPM_P1;HPM_P2
2024/03/14 00:01:16;;;;;;;9.35;6.25;;;;;;;;;;5076632;28;20520;-75
2024/03/14 00:03:42;;;;;;;9.43;5.80;;;;;;;;;;5069366;28;20112;-76
2024/03/14 00:06:09;;;;;;;9.75;5.88;;;;;;;;;;5069750;28;20103;-76
2024/03/14 00:08:34;;;;;;;8.77;5.50;;;;;;;;;;5069697;28;20451;-76
2024/03/14 00:10:59;;;;;;;9.35;5.40;;;;;;;;;;5074603;28;20092;-76
2024/03/14 00:13:28;;;;;;;9.68;5.43;;;;;;;;;;5069378;28;20036;-76
2024/03/14 00:15:54;;;;;;;8.77;5.85;;;;;;;;;;5070455;28;20115;-75
2024/03/14 00:18:19;;;;;;;8.68;5.80;;;;;;;;;;5069624;28;20678;-75
2024/03/14 00:20:44;;;;;;;8.45;5.07;;;;;;;;;;5062513;28;20023;-76
2024/03/14 00:23:09;;;;;;;7.55;4.95;;;;;;;;;;5075576;28;20024;-76
2024/03/14 00:25:34;;;;;;;8.48;5.25;;;;;;;;;;5069413;28;20032;-76
2024/03/14 00:28:00;;;;;;;8.02;5.50;;;;;;;;;;5074890;28;20032;-76
2024/03/14 00:30:27;;;;;;;9.10;6.05;;;;;;;;;;5077665;28;20056;-76
2024/03/14 00:32:52;;;;;;;8.52;5.95;;;;;;;;;;5073669;28;20054;-76
2024/03/14 00:35:18;;;;;;;9.52;6.72;;;;;;;;;;5073169;28;20107;-75
2024/03/14 00:37:44;;;;;;;9.95;5.97;;;;;;;;;;5073097;28;20462;-76
2024/03/14 00:40:11;;;;;;;9.07;5.88;;;;;;;;;;5075123;28;20028;-76
2024/03/14 00:42:37;;;;;;;7.80;5.10;;;;;;;;;;5075736;28;20029;-75
2024/03/14 00:45:04;;;;;;;8.43;5.35;;;;;;;;;;5077045;28;20512;-76
2024/03/14 00:47:30;;;;;;;8.77;5.93;;;;;;;;;;5073045;28;20036;-76
2024/03/14 00:49:55;;;;;;;8.63;4.97;;;;;;;;;;5078952;28;20031;-76
2024/03/14 00:52:20;;;;;;;8.10;5.32;;;;;;;;;;5081531;28;20115;-75
2024/03/14 00:54:45;;;;;;;10.85;5.40;;;;;;;;;;5073559;28;20107;-76
2024/03/14 00:57:11;;;;;;;9.40;5.97;;;;;;;;;;5072812;28;20033;-76
2024/03/14 00:59:36;;;;;;;7.63;4.75;;;;;;;;;;5072641;28;20032;-76
2024/03/14 01:02:02;;;;;;;9.65;5.28;;;;;;;;;;5077535;28;20033;-76
2024/03/14 01:04:30;;;;;;;10.85;4.78;;;;;;;;;;5071677;28;20036;-76
2024/03/14 01:06:55;;;;;;;7.43;4.90;;;;;;;;;;5076047;28;20405;-76
2024/03/14 01:09:25;;;;;;;8.93;4.97;;;;;;;;;;5072676;28;20028;-75
2024/03/14 01:11:52;;;;;;;7.18;5.25;;;;;;;;;;5082543;28;20032;-76
2024/03/14 01:14:18;;;;;;;8.52;5.50;;;;;;;;;;5072420;28;20044;-76
2024/03/14 01:16:43;;;;;;;9.50;5.43;;;;;;;;;;5072413;28;20036;-76
2024/03/14 01:19:09;;;;;;;9.63;5.20;;;;;;;;;;5072764;28;20052;-76
2024/03/14 01:21:41;;;;;;;8.80;5.60;;;;;;;;;;5077214;28;20540;-76
2024/03/14 01:24:06;;;;;;;8.55;6.15;;;;;;;;;;5082772;28;20493;-76
2024/03/14 01:26:34;;;;;;;9.35;5.68;;;;;;;;;;5072326;28;20040;-76
2024/03/14 01:28:59;;;;;;;8.98;5.72;;;;;;;;;;5072272;28;20047;-75
2024/03/14 01:31:25;;;;;;;8.35;5.15;;;;;;;;;;5076961;28;20040;-75
2024/03/14 01:33:51;;;;;;;7.95;5.85;;;;;;;;;;5071782;28;20032;-76
2024/03/14 01:36:16;;;;;;;8.05;5.00;;;;;;;;;;5071893;28;20557;-76
2024/03/14 01:38:41;;;;;;;7.78;5.82;;;;;;;;;;5071510;28;20110;-76
2024/03/14 01:41:18;;;;;;;8.98;5.60;;;;;;;;;;5076651;28;20550;-75
2024/03/14 01:43:56;;;;;;;9.70;5.72;;;;;;;;;;5071661;28;20038;-76
2024/03/14 01:46:22;;;;;;;6.93;4.97;;;;;;;;;;5071963;28;20025;-75
2024/03/14 01:48:47;;;;;;;10.02;5.57;;;;;;;;;;5072102;28;20554;-75
2024/03/14 01:51:12;;;;;;;7.63;5.18;;;;;;;;;;5077064;28;20032;-75
2024/03/14 01:53:38;;;;;;;7.57;5.00;;;;;;;;;;5081114;28;20036;-77
2024/03/14 01:56:04;;;;;;;9.02;5.50;;;;;;;;;;5071500;28;20036;-76
2024/03/14 01:58:29;;;;;;;9.50;6.20;;;;;;;;;;5071756;28;20060;-75
2024/03/14 02:00:55;;;;;;;10.13;7.03;;;;;;;;;;5074490;28;20520;-75
2024/03/14 02:03:20;;;;;;;11.57;6.30;;;;;;;;;;5071911;28;20124;-76
2024/03/14 02:05:50;;;;;;;9.20;6.53;;;;;;;;;;5074314;28;20039;-76
2024/03/14 02:08:15;;;;;;;9.82;6.63;;;;;;;;;;5073940;28;20035;-76
2024/03/14 02:10:41;;;;;;;9.38;6.13;;;;;;;;;;5075473;28;20107;-76
2024/03/14 02:13:06;;;;;;;9.65;6.35;;;;;;;;;;5071218;28;20675;-76
2024/03/14 02:15:32;;;;;;;10.00;7.65;;;;;;;;;;5071216;28;20851;-76
2024/03/14 02:17:57;;;;;;;12.13;6.80;;;;;;;;;;5071088;28;20452;-75
2024/03/14 02:20:23;;;;;;;11.07;7.00;;;;;;;;;;5073487;28;20412;-76
2024/03/14 02:22:48;;;;;;;11.07;7.13;;;;;;;;;;5081219;28;20024;-75
2024/03/14 02:25:14;;;;;;;11.82;8.98;;;;;;;;;;5071059;28;20028;-75
2024/03/14 02:27:40;;;;;;;14.20;8.95;;;;;;;;;;5069878;28;20516;-76
2024/03/14 02:30:05;;;;;;;12.63;9.13;;;;;;;;;;5071025;28;20024;-76
2024/03/14 02:32:31;;;;;;;13.60;10.18;;;;;;;;;;5073014;28;20029;-76
2024/03/14 02:34:56;;;;;;;13.98;10.45;;;;;;;;;;5070821;28;20416;-76
2024/03/14 02:37:21;;;;;;;12.75;9.60;;;;;;;;;;5071007;28;20028;-75
2024/03/14 02:39:47;;;;;;;12.57;8.95;;;;;;;;;;5070625;28;20036;-76
2024/03/14 02:42:13;;;;;;;12.88;9.80;;;;;;;;;;5080644;28;20102;-76
2024/03/14 02:44:38;;;;;;;13.50;9.73;;;;;;;;;;5070559;28;20083;-76
2024/03/14 02:47:04;;;;;;;15.60;11.07;;;;;;;;;;5072929;28;20025;-75
2024/03/14 02:49:29;;;;;;;13.82;11.02;;;;;;;;;;5070089;28;20507;-75
2024/03/14 02:51:54;;;;;;;14.68;9.75;;;;;;;;;;5073710;28;20032;-76
2024/03/14 02:54:19;;;;;;;12.98;9.73;;;;;;;;;;5078581;28;20024;-75
2024/03/14 02:56:47;;;;;;;15.35;9.27;;;;;;;;;;5077131;28;20132;-76
2024/03/14 02:59:16;;;;;;;12.48;8.85;;;;;;;;;;5079086;28;20452;-75
2024/03/14 03:01:41;;;;;;;11.90;8.02;;;;;;;;;;5076823;28;20463;-76
2024/03/14 03:04:09;;;;;;;13.88;9.98;;;;;;;;;;5078516;28;20115;-76
2024/03/14 03:06:34;;;;;;;12.90;9.65;;;;;;;;;;5074774;28;20399;-75
2024/03/14 03:08:59;;;;;;;14.63;10.18;;;;;;;;;;5077897;28;20044;-74
2024/03/14 03:11:25;;;;;;;14.32;10.02;;;;;;;;;;5073877;28;20036;-74
2024/03/14 03:13:50;;;;;;;11.52;8.57;;;;;;;;;;5075265;28;20024;-74
2024/03/14 03:16:15;;;;;;;12.63;9.65;;;;;;;;;;5076304;28;20043;-74
2024/03/14 03:18:41;;;;;;;12.52;9.30;;;;;;;;;;5072108;28;20047;-75
2024/03/14 03:21:06;;;;;;;14.77;10.23;;;;;;;;;;5073954;28;20028;-74
2024/03/14 03:23:31;;;;;;;12.95;9.38;;;;;;;;;;5077091;28;20032;-74
2024/03/14 03:25:57;;;;;;;14.38;10.35;;;;;;;;;;5073381;28;20029;-74
2024/03/14 03:28:23;;;;;;;20.35;13.65;;;;;;;;;;5070008;28;20037;-74
2024/03/14 03:30:48;;;;;;;16.10;12.13;;;;;;;;;;5071758;28;20761;-74
2024/03/14 03:33:18;;;;;;;14.13;9.27;;;;;;;;;;5070918;28;20119;-74
2024/03/14 03:35:45;;;;;;;15.38;11.40;;;;;;;;;;5070186;28;20081;-74
2024/03/14 03:38:10;;;;;;;16.23;11.20;;;;;;;;;;5070228;28;20032;-74
2024/03/14 03:40:39;;;;;;;17.23;13.25;;;;;;;;;;5072777;28;20027;-74
2024/03/14 03:43:05;;;;;;;14.77;11.57;;;;;;;;;;5071965;28;20029;-74
2024/03/14 03:45:30;;;;;;;13.93;10.55;;;;;;;;;;5069887;28;20032;-74
2024/03/14 03:47:55;;;;;;;19.35;13.07;;;;;;;;;;5070103;28;20123;-75
2024/03/14 03:50:21;;;;;;;17.38;12.10;;;;;;;;;;5071877;28;20032;-74
2024/03/14 03:52:46;;;;;;;13.35;10.75;;;;;;;;;;5080101;28;20036;-74
2024/03/14 03:55:16;;;;;;;17.63;14.10;;;;;;;;;;5069859;28;20029;-75
2024/03/14 03:57:42;;;;;;;17.60;12.82;;;;;;;;;;5072825;28;20465;-75
2024/03/14 04:00:32;;;;;;;16.50;13.60;;;;;;;;;;5070153;28;20112;-74
2024/03/14 04:02:52;;;;;;;17.67;13.00;;;;;;;;;;5077790;28;20048;-74
2024/03/14 04:05:19;;;;;;;17.30;12.75;;;;;;;;;;5072608;28;20071;-74
2024/03/14 04:07:45;;;;;;;13.30;10.07;;;;;;;;;;5073709;28;20047;-74
2024/03/14 04:10:11;;;;;;;14.55;11.02;;;;;;;;;;5073929;28;20492;-74
2024/03/14 04:12:36;;;;;;;14.73;11.50;;;;;;;;;;5081421;28;20035;-74
2024/03/14 04:15:02;;;;;;;16.08;11.98;;;;;;;;;;5073300;28;20037;-74
2024/03/14 04:17:27;;;;;;;14.98;10.60;;;;;;;;;;5073685;28;20063;-74
2024/03/14 04:19:53;;;;;;;14.00;10.43;;;;;;;;;;5072160;28;20040;-74
2024/03/14 04:22:19;;;;;;;14.65;11.15;;;;;;;;;;5081295;28;20043;-74
2024/03/14 04:24:44;;;;;;;14.48;10.85;;;;;;;;;;5074251;28;20041;-75
2024/03/14 04:27:10;;;;;;;16.63;12.30;;;;;;;;;;5073315;28;20081;-74
2024/03/14 04:29:35;;;;;;;15.77;11.90;;;;;;;;;;5076173;28;20032;-74
2024/03/14 04:32:00;;;;;;;16.55;12.77;;;;;;;;;;5078013;28;20029;-75
2024/03/14 04:34:26;;;;;;;21.67;13.18;;;;;;;;;;5083136;28;20071;-74
2024/03/14 04:36:51;;;;;;;19.02;14.18;;;;;;;;;;5073076;28;20093;-74
2024/03/14 04:39:19;;;;;;;15.45;11.75;;;;;;;;;;5073258;28;20044;-74
2024/03/14 04:41:44;;;;;;;15.25;12.68;;;;;;;;;;5076069;28;20035;-75
2024/03/14 04:44:10;;;;;;;14.85;10.52;;;;;;;;;;5077181;28;20021;-74
2024/03/14 04:46:36;;;;;;;18.63;12.95;;;;;;;;;;5073100;28;20039;-74
2024/03/14 04:49:02;;;;;;;13.82;9.75;;;;;;;;;;5071569;28;20094;-74
2024/03/14 04:51:30;;;;;;;20.52;14.57;;;;;;;;;;5075104;28;20488;-74
2024/03/14 04:53:57;;;;;;;17.88;12.82;;;;;;;;;;5076205;28;20028;-74
2024/03/14 04:56:22;;;;;;;14.75;11.85;;;;;;;;;;5072930;28;20056;-74
2024/03/14 04:58:47;;;;;;;21.08;14.85;;;;;;;;;;5071486;28;20493;-74
2024/03/14 05:01:12;;;;;;;19.55;12.95;;;;;;;;;;5073657;28;20028;-75
2024/03/14 05:03:38;;;;;;;17.80;11.23;;;;;;;;;;5081019;28;20036;-74
2024/03/14 05:06:03;;;;;;;19.67;14.13;;;;;;;;;;5079963;28;20074;-74
2024/03/14 05:08:28;;;;;;;17.10;12.52;;;;;;;;;;5075976;28;20035;-74
2024/03/14 05:10:54;;;;;;;16.88;12.57;;;;;;;;;;5085368;28;20085;-74
2024/03/14 05:13:19;;;;;;;19.25;13.10;;;;;;;;;;5078480;28;20085;-74
2024/03/14 05:15:45;;;;;;;16.25;12.23;;;;;;;;;;5072506;28;20024;-75
2024/03/14 05:18:10;;;;;;;15.73;12.00;;;;;;;;;;5072352;28;20035;-74
2024/03/14 05:20:36;;;;;;;16.73;13.73;;;;;;;;;;5073469;28;20032;-74
2024/03/14 05:23:01;;;;;;;21.35;14.90;;;;;;;;;;5078348;28;20020;-74
2024/03/14 05:25:26;;;;;;;18.17;13.65;;;;;;;;;;5075257;28;20055;-74
2024/03/14 05:27:52;;;;;;;25.98;16.63;;;;;;;;;;5080852;28;20038;-74
2024/03/14 05:30:18;;;;;;;51.15;39.55;;;;;;;;;;5091266;28;20040;-74
2024/03/14 05:32:44;;;;;;;23.70;17.48;;;;;;;;;;5084194;28;20085;-74
2024/03/14 05:35:10;;;;;;;20.20;14.05;;;;;;;;;;5080225;28;20025;-74
2024/03/14 05:37:35;;;;;;;16.92;12.25;;;;;;;;;;5080694;28;20091;-74
2024/03/14 05:40:01;;;;;;;22.75;16.75;;;;;;;;;;5084303;28;20043;-74
2024/03/14 05:42:26;;;;;;;18.65;13.80;;;;;;;;;;5084983;28;20036;-74
2024/03/14 05:44:55;;;;;;;16.73;12.43;;;;;;;;;;5078238;28;20044;-74
2024/03/14 05:47:20;;;;;;;15.05;11.63;;;;;;;;;;5078405;28;20036;-74
2024/03/14 05:49:45;;;;;;;15.85;12.25;;;;;;;;;;5075883;28;20036;-74
2024/03/14 05:52:11;;;;;;;17.17;14.25;;;;;;;;;;5079158;28;20036;-74
2024/03/14 05:54:36;;;;;;;18.30;12.35;;;;;;;;;;5079034;28;20032;-75
2024/03/14 05:57:02;;;;;;;19.95;14.05;;;;;;;;;;5079104;28;20511;-74
2024/03/14 05:59:28;;;;;;;17.95;13.23;;;;;;;;;;5072268;28;20108;-74
2024/03/14 06:01:53;;;;;;;18.55;12.85;;;;;;;;;;5074522;28;20024;-74
2024/03/14 06:04:18;;;;;;;30.95;22.52;;;;;;;;;;5075769;28;20488;-74
2024/03/14 06:06:43;;;;;;;17.95;14.60;;;;;;;;;;5077693;28;20032;-74
2024/03/14 06:09:12;;;;;;;18.05;13.68;;;;;;;;;;5075802;28;20028;-74
2024/03/14 06:11:37;;;;;;;18.45;15.13;;;;;;;;;;5069434;28;20553;-74
2024/03/14 06:14:03;;;;;;;18.02;14.88;;;;;;;;;;5075956;28;20107;-75
2024/03/14 06:16:28;;;;;;;17.75;13.48;;;;;;;;;;5069113;28;20032;-74
2024/03/14 06:18:53;;;;;;;18.20;13.00;;;;;;;;;;5070194;28;20401;-74
2024/03/14 06:21:21;;;;;;;19.77;14.35;;;;;;;;;;5072730;28;20028;-74
2024/03/14 06:23:49;;;;;;;21.58;14.48;;;;;;;;;;5077344;28;20028;-74
2024/03/14 06:26:15;;;;;;;18.60;15.00;;;;;;;;;;5070850;28;20070;-74
2024/03/14 06:28:40;;;;;;;17.58;12.65;;;;;;;;;;5071168;28;20036;-74
2024/03/14 06:31:06;;;;;;;20.35;12.88;;;;;;;;;;5083430;28;20118;-74
2024/03/14 06:33:31;;;;;;;17.00;13.00;;;;;;;;;;5075687;28;20028;-74
2024/03/14 06:35:56;;;;;;;19.17;13.82;;;;;;;;;;5070664;28;20409;-74
2024/03/14 06:38:24;;;;;;;20.60;16.30;;;;;;;;;;5070917;28;20062;-74
2024/03/14 06:40:51;;;;;;;18.85;13.85;;;;;;;;;;5072488;28;20086;-74
2024/03/14 06:43:16;;;;;;;21.45;15.48;;;;;;;;;;5076122;28;20415;-74
2024/03/14 06:45:41;;;;;;;23.55;18.42;;;;;;;;;;5070407;28;20032;-74
2024/03/14 06:48:07;;;;;;;18.73;12.93;;;;;;;;;;5070720;28;20039;-74
2024/03/14 06:50:34;;;;;;;24.92;16.85;;;;;;;;;;5077526;28;20036;-74
2024/03/14 06:52:59;;;;;;;17.80;13.82;;;;;;;;;;5085812;28;20039;-74
2024/03/14 06:55:24;;;;;;;21.90;16.13;;;;;;;;;;5071339;28;20039;-74
2024/03/14 06:57:52;;;;;;;19.05;14.77;;;;;;;;;;5076550;28;20028;-74
2024/03/14 07:00:22;;;;;;;16.08;13.05;;;;;;;;;;5073379;28;20101;-74
2024/03/14 07:02:48;;;;;;;16.73;13.23;;;;;;;;;;5077669;28;20028;-74
2024/03/14 07:05:16;;;;;;;21.88;14.52;;;;;;;;;;5069043;28;20031;-74
2024/03/14 07:07:44;;;;;;;21.27;14.82;;;;;;;;;;5070328;28;20378;-74
2024/03/14 07:10:16;;;;;;;18.95;14.45;;;;;;;;;;5076110;28;20076;-74
2024/03/14 07:12:42;;;;;;;22.48;16.80;;;;;;;;;;5079595;28;20024;-74
2024/03/14 07:15:07;;;;;;;26.60;17.45;;;;;;;;;;5078206;28;20362;-74
2024/03/14 07:17:34;;;;;;;20.08;15.45;;;;;;;;;;5072982;28;20485;-74
2024/03/14 07:20:05;;;;;;;24.70;17.42;;;;;;;;;;5076427;28;20033;-74
2024/03/14 07:22:31;;;;;;;25.00;17.83;;;;;;;;;;5078482;28;20526;-74
2024/03/14 07:24:56;;;;;;;26.45;16.60;;;;;;;;;;5070073;28;20024;-74
2024/03/14 07:27:22;;;;;;;21.85;15.98;;;;;;;;;;5070039;28;20086;-74
2024/03/14 07:29:47;;;;;;;20.25;15.75;;;;;;;;;;5070013;28;20028;-74
2024/03/14 07:32:14;;;;;;;18.90;13.57;;;;;;;;;;5074934;28;20508;-74
2024/03/14 07:34:39;;;;;;;18.65;13.65;;;;;;;;;;5073458;28;20067;-74
2024/03/14 07:37:05;;;;;;;19.30;15.02;;;;;;;;;;5068481;28;20059;-74
2024/03/14 07:39:31;;;;;;;20.55;16.15;;;;;;;;;;5070166;28;20037;-74
2024/03/14 07:41:58;;;;;;;17.90;13.57;;;;;;;;;;5074742;28;20032;-74
2024/03/14 07:44:24;;;;;;;19.67;15.75;;;;;;;;;;5075087;28;20699;-74
2024/03/14 07:46:49;;;;;;;19.13;14.43;;;;;;;;;;5070127;28;20032;-74
2024/03/14 07:49:14;;;;;;;18.70;14.80;;;;;;;;;;5070154;28;20055;-74
2024/03/14 07:51:41;;;;;;;16.85;13.45;;;;;;;;;;5075948;28;20492;-75
2024/03/14 07:54:11;;;;;;;22.20;15.57;;;;;;;;;;5077063;28;20036;-74
2024/03/14 07:56:36;;;;;;;21.05;15.57;;;;;;;;;;5069853;28;20028;-74
2024/03/14 07:59:02;;;;;;;18.90;14.43;;;;;;;;;;5071893;28;20043;-74
2024/03/14 08:01:28;;;;;;;19.88;15.60;;;;;;;;;;5075465;28;20032;-74
2024/03/14 08:03:53;;;;;;;20.55;15.18;;;;;;;;;;5073359;28;20133;-75
2024/03/14 08:06:18;;;;;;;20.10;14.98;;;;;;;;;;5068981;28;20067;-74
2024/03/14 08:08:44;;;;;;;16.95;13.43;;;;;;;;;;5069473;28;20138;-75
2024/03/14 08:11:11;;;;;;;18.63;13.90;;;;;;;;;;5077874;28;20024;-74
2024/03/14 08:13:37;;;;;;;19.67;14.57;;;;;;;;;;5075013;28;20049;-74
2024/03/14 08:16:08;;;;;;;19.73;13.65;;;;;;;;;;5069734;28;20154;-74
2024/03/14 08:18:38;;;;;;;23.17;15.87;;;;;;;;;;5070584;28;20047;-74
2024/03/14 08:21:07;;;;;;;18.42;13.25;;;;;;;;;;5071538;28;20282;-75
2024/03/14 08:23:33;;;;;;;19.42;14.75;;;;;;;;;;5078429;28;20040;-74
2024/03/14 08:25:59;;;;;;;19.10;14.48;;;;;;;;;;5069396;28;20020;-74
2024/03/14 08:28:25;;;;;;;16.58;13.43;;;;;;;;;;5071133;28;20036;-74
2024/03/14 08:30:50;;;;;;;18.15;13.45;;;;;;;;;;5071715;28;20049;-75
2024/03/14 08:33:15;;;;;;;17.35;12.27;;;;;;;;;;5081162;28;20036;-74
2024/03/14 08:35:42;;;;;;;15.57;11.23;;;;;;;;;;5074113;28;20033;-74
2024/03/14 08:38:07;;;;;;;18.98;14.98;;;;;;;;;;5073705;28;20042;-74
2024/03/14 08:40:35;;;;;;;18.35;14.15;;;;;;;;;;5076395;28;20024;-74
2024/03/14 08:43:00;;;;;;;19.52;15.68;;;;;;;;;;5088056;28;20028;-75
2024/03/14 08:45:25;;;;;;;16.25;11.88;;;;;;;;;;5070809;28;20031;-75
2024/03/14 08:47:51;;;;;;;15.65;12.13;;;;;;;;;;5070683;28;20440;-74
2024/03/14 08:50:20;;;;;;;20.63;14.63;;;;;;;;;;5074768;28;20081;-74
2024/03/14 08:52:46;;;;;;;22.02;15.80;;;;;;;;;;5090300;28;20028;-74
2024/03/14 08:55:23;;;;;;;16.63;11.88;;;;;;;;;;5084227;28;20408;-75
2024/03/14 08:57:51;;;;;;;17.02;12.68;;;;;;;;;;5076330;28;20122;-74
2024/03/14 09:00:17;;;;;;;28.63;20.17;;;;;;;;;;5079975;28;20032;-74
2024/03/14 09:02:43;;;;;;;23.17;17.40;;;;;;;;;;5082921;28;20040;-75
2024/03/14 09:05:11;;;;;;;23.48;18.27;;;;;;;;;;5072444;28;20024;-74
2024/03/14 09:07:40;;;;;;;20.08;15.98;;;;;;;;;;5073424;28;20032;-74
2024/03/14 09:10:15;;;;;;;21.10;15.77;;;;;;;;;;5071593;28;20493;-75
2024/03/14 09:12:41;;;;;;;20.67;16.35;;;;;;;;;;5082998;28;20024;-74
2024/03/14 09:15:09;;;;;;;17.73;13.45;;;;;;;;;;5080627;28;20024;-74
2024/03/14 09:17:34;;;;;;;19.38;13.65;;;;;;;;;;5078423;28;20688;-75
2024/03/14 09:19:59;;;;;;;15.63;11.88;;;;;;;;;;5073855;28;20039;-74
2024/03/14 09:22:25;;;;;;;16.45;11.88;;;;;;;;;;5090632;28;20539;-74
2024/03/14 09:24:50;;;;;;;15.90;11.57;;;;;;;;;;5073797;28;20030;-75
2024/03/14 09:27:15;;;;;;;16.08;12.43;;;;;;;;;;5072039;28;20037;-74
2024/03/14 09:29:40;;;;;;;17.13;14.20;;;;;;;;;;5078685;28;20032;-74
2024/03/14 09:32:06;;;;;;;17.25;13.18;;;;;;;;;;5078723;28;20035;-75
2024/03/14 09:34:32;;;;;;;16.05;12.60;;;;;;;;;;5077261;28;20392;-74
2024/03/14 09:36:57;;;;;;;20.33;15.20;;;;;;;;;;5071077;28;20111;-74
2024/03/14 09:39:22;;;;;;;20.73;16.67;;;;;;;;;;5071336;28;20040;-75
2024/03/14 09:41:48;;;;;;;21.17;16.23;;;;;;;;;;5075877;28;20027;-75
2024/03/14 09:44:14;;;;;;;18.17;13.27;;;;;;;;;;5075274;28;20028;-75
2024/03/14 09:46:41;;;;;;;18.67;14.27;;;;;;;;;;5071084;28;20032;-74
2024/03/14 09:49:12;;;;;;;17.08;13.35;;;;;;;;;;5071558;28;20115;-75
2024/03/14 09:51:37;;;;;;;16.83;13.25;;;;;;;;;;5076896;28;20031;-75
2024/03/14 09:54:03;;;;;;;15.73;12.55;;;;;;;;;;5084002;28;20081;-75
2024/03/14 09:56:29;;;;;;;17.38;13.75;;;;;;;;;;5076654;28;20075;-74
2024/03/14 09:58:56;;;;;;;18.00;13.43;;;;;;;;;;5079117;28;20028;-75
2024/03/14 10:01:21;;;;;;;16.77;12.93;;;;;;;;;;5074641;28;20039;-75
2024/03/14 10:03:47;;;;;;;16.77;13.20;;;;;;;;;;5077772;28;20025;-75
2024/03/14 10:06:18;;;;;;;17.88;12.85;;;;;;;;;;5071582;28;20455;-75
2024/03/14 10:08:47;;;;;;;15.83;12.50;;;;;;;;;;5072186;28;20040;-75
2024/03/14 10:11:13;;;;;;;22.40;16.60;;;;;;;;;;5077153;28;20287;-74
2024/03/14 10:13:39;;;;;;;20.85;15.48;;;;;;;;;;5075550;28;20063;-74
2024/03/14 10:16:05;;;;;;;20.58;15.27;;;;;;;;;;5070979;28;20068;-75
2024/03/14 10:18:31;;;;;;;18.75;13.60;;;;;;;;;;5071408;28;20123;-75
2024/03/14 10:20:57;;;;;;;19.67;15.45;;;;;;;;;;5070406;28;20388;-74
2024/03/14 10:23:22;;;;;;;16.25;12.50;;;;;;;;;;5085153;28;20037;-75
2024/03/14 10:25:53;;;;;;;18.73;13.82;;;;;;;;;;5070951;28;20459;-75
2024/03/14 10:28:20;;;;;;;18.20;14.85;;;;;;;;;;5072034;28;20044;-75
2024/03/14 10:30:51;;;;;;;14.88;11.95;;;;;;;;;;5074727;28;20072;-75
2024/03/14 10:33:17;;;;;;;17.95;14.45;;;;;;;;;;5081752;28;20074;-74
2024/03/14 10:35:42;;;;;;;17.42;12.18;;;;;;;;;;5072794;28;20063;-74
2024/03/14 10:38:11;;;;;;;15.40;12.18;;;;;;;;;;5083531;28;20032;-74
2024/03/14 10:40:38;;;;;;;16.85;12.73;;;;;;;;;;5078156;28;20031;-74
2024/03/14 10:43:08;;;;;;;18.08;13.38;;;;;;;;;;5080161;28;20031;-75
2024/03/14 10:45:33;;;;;;;14.13;11.40;;;;;;;;;;5072179;28;20170;-75
2024/03/14 10:48:02;;;;;;;17.48;13.45;;;;;;;;;;5077536;28;20553;-74
2024/03/14 10:50:30;;;;;;;17.10;13.30;;;;;;;;;;5072307;28;20071;-75
2024/03/14 10:52:57;;;;;;;18.67;13.75;;;;;;;;;;5081987;28;20248;-75
2024/03/14 10:55:22;;;;;;;18.50;14.10;;;;;;;;;;5076625;28;20859;-74
2024/03/14 10:57:48;;;;;;;19.50;12.38;;;;;;;;;;5073799;28;20071;-75
2024/03/14 11:00:14;;;;;;;15.20;11.32;;;;;;;;;;5074859;28;20107;-74
2024/03/14 11:02:45;;;;;;;16.48;12.13;;;;;;;;;;5079836;28;20056;-75
2024/03/14 11:05:11;;;;;;;20.63;14.80;;;;;;;;;;5074994;28;20028;-75
2024/03/14 11:07:39;;;;;;;17.02;11.38;;;;;;;;;;5070484;28;20109;-75
2024/03/14 11:10:09;;;;;;;18.98;13.57;;;;;;;;;;5071843;28;20036;-74
2024/03/14 11:12:35;;;;;;;17.23;13.38;;;;;;;;;;5081910;28;20039;-74
2024/03/14 11:15:03;;;;;;;18.70;12.82;;;;;;;;;;5072223;28;20028;-74
2024/03/14 11:17:29;;;;;;;15.95;11.85;;;;;;;;;;5070393;28;20568;-75
2024/03/14 11:19:56;;;;;;;18.75;12.45;;;;;;;;;;5069942;28;20074;-74
2024/03/14 11:22:21;;;;;;;16.17;12.38;;;;;;;;;;5080134;28;20085;-74
2024/03/14 11:24:48;;;;;;;18.05;13.25;;;;;;;;;;5086271;28;20393;-74
2024/03/14 11:27:14;;;;;;;19.27;13.05;;;;;;;;;;5081172;28;20115;-74
2024/03/14 11:29:40;;;;;;;19.45;13.82;;;;;;;;;;5083957;28;20052;-74
2024/03/14 11:32:11;;;;;;;19.73;13.80;;;;;;;;;;5088023;28;20024;-74
2024/03/14 11:34:37;;;;;;;18.85;12.88;;;;;;;;;;5087243;28;20024;-74
2024/03/14 11:37:02;;;;;;;18.52;12.63;;;;;;;;;;5083721;28;20084;-74
2024/03/14 11:39:27;;;;;;;15.65;11.32;;;;;;;;;;5079838;28;20044;-75
2024/03/14 11:42:23;;;;;;;16.80;11.93;;;;;;;;;;5074592;28;20043;-74
2024/03/14 11:44:49;;;;;;;14.00;10.23;;;;;;;;;;5071746;28;20038;-74
2024/03/14 11:47:35;;;;;;;23.58;16.15;;;;;;;;;;5088750;28;20423;-74
2024/03/14 11:50:00;;;;;;;17.23;11.45;;;;;;;;;;5073428;28;20102;-74
2024/03/14 11:52:25;;;;;;;16.08;12.23;;;;;;;;;;5080379;28;20020;-74
2024/03/14 11:54:55;;;;;;;17.60;12.73;;;;;;;;;;5080394;28;20031;-75
2024/03/14 11:57:22;;;;;;;18.13;12.25;;;;;;;;;;5078898;28;20035;-74
2024/03/14 11:59:48;;;;;;;17.20;12.60;;;;;;;;;;5069674;28;20507;-74
2024/03/14 12:02:14;;;;;;;20.23;14.68;;;;;;;;;;5078189;28;20021;-74
2024/03/14 12:04:40;;;;;;;22.88;16.30;;;;;;;;;;5072331;28;20381;-75
2024/03/14 12:07:07;;;;;;;16.92;12.20;;;;;;;;;;5069619;28;20090;-74
2024/03/14 12:09:33;;;;;;;19.25;12.90;;;;;;;;;;5073394;28;20086;-74
2024/03/14 12:11:58;;;;;;;16.10;12.77;;;;;;;;;;5079318;28;20424;-75
2024/03/14 12:14:24;;;;;;;19.00;13.23;;;;;;;;;;5073016;28;20051;-74
2024/03/14 12:16:49;;;;;;;19.83;12.85;;;;;;;;;;5069475;28;20032;-74
2024/03/14 12:19:18;;;;;;;20.80;12.90;;;;;;;;;;5069747;28;20043;-75
2024/03/14 12:21:53;;;;;;;16.50;12.38;;;;;;;;;;5074348;28;20028;-74
2024/03/14 12:24:19;;;;;;;16.30;10.30;;;;;;;;;;5085033;28;20028;-74
2024/03/14 12:26:44;;;;;;;14.23;10.32;;;;;;;;;;5078186;28;20127;-75
2024/03/14 12:29:11;;;;;;;14.45;11.35;;;;;;;;;;5079529;28;20081;-75
2024/03/14 12:31:37;;;;;;;12.77;9.27;;;;;;;;;;5076102;28;20040;-75
2024/03/14 12:34:04;;;;;;;14.30;9.30;;;;;;;;;;5078550;28;20047;-74
2024/03/14 12:36:32;;;;;;;50.47;33.20;;;;;;;;;;5077885;28;20124;-75
2024/03/14 12:38:58;;;;;;;19.17;13.52;;;;;;;;;;5073994;28;20055;-77
2024/03/14 12:41:24;;;;;;;14.68;10.45;;;;;;;;;;5075209;28;20508;-74
2024/03/14 12:43:49;;;;;;;14.73;10.40;;;;;;;;;;5079829;28;20032;-74
2024/03/14 12:46:19;;;;;;;14.73;10.15;;;;;;;;;;5072813;28;20142;-74
2024/03/14 12:48:45;;;;;;;12.63;8.90;;;;;;;;;;5081515;28;20020;-74
2024/03/14 12:51:12;;;;;;;12.90;8.57;;;;;;;;;;5073196;28;20492;-74
2024/03/14 12:53:37;;;;;;;12.32;7.78;;;;;;;;;;5087303;28;20408;-74
2024/03/14 12:56:04;;;;;;;11.88;8.80;;;;;;;;;;5075267;28;20162;-74
2024/03/14 12:58:30;;;;;;;12.10;8.63;;;;;;;;;;5078682;28;20111;-74
2024/03/14 13:00:56;;;;;;;13.48;9.05;;;;;;;;;;5072586;28;20119;-74
2024/03/14 13:03:24;;;;;;;13.55;9.13;;;;;;;;;;5082591;28;20028;-74
2024/03/14 13:05:50;;;;;;;11.27;8.27;;;;;;;;;;5075925;28;20492;-74
2024/03/14 13:08:17;;;;;;;11.20;8.23;;;;;;;;;;5083719;28;20039;-74
2024/03/14 13:10:42;;;;;;;17.08;11.38;;;;;;;;;;5072534;28;20039;-74
2024/03/14 13:13:13;;;;;;;15.45;11.30;;;;;;;;;;5083022;28;20400;-74
2024/03/14 13:15:41;;;;;;;12.73;8.98;;;;;;;;;;5072392;28;20036;-74
2024/03/14 13:18:13;;;;;;;15.48;9.88;;;;;;;;;;5072270;28;20040;-74
2024/03/14 13:20:39;;;;;;;13.67;9.83;;;;;;;;;;5072458;28;20036;-74
2024/03/14 13:23:04;;;;;;;16.00;11.73;;;;;;;;;;5087343;28;20054;-74
2024/03/14 13:25:30;;;;;;;12.73;9.80;;;;;;;;;;5073132;28;20503;-74
2024/03/14 13:27:56;;;;;;;19.80;14.48;;;;;;;;;;5073138;28;20032;-74
2024/03/14 13:30:21;;;;;;;12.57;9.27;;;;;;;;;;5072410;28;20059;-74
2024/03/14 13:32:47;;;;;;;12.20;8.13;;;;;;;;;;5075178;28;20393;-74
2024/03/14 13:35:13;;;;;;;13.52;8.88;;;;;;;;;;5072326;28;20035;-74
2024/03/14 13:37:42;;;;;;;10.50;7.32;;;;;;;;;;5072084;28;20031;-74
2024/03/14 13:40:11;;;;;;;10.63;7.32;;;;;;;;;;5071607;28;20115;-74
2024/03/14 13:42:36;;;;;;;10.43;7.57;;;;;;;;;;5075594;28;20044;-74
2024/03/14 13:45:01;;;;;;;10.52;7.97;;;;;;;;;;5073600;28;20021;-74
2024/03/14 13:47:26;;;;;;;13.80;9.07;;;;;;;;;;5071878;28;20144;-74
2024/03/14 13:49:51;;;;;;;9.87;6.73;;;;;;;;;;5071630;28;20036;-74
2024/03/14 13:52:18;;;;;;;11.98;7.57;;;;;;;;;;5079778;28;20292;-74
2024/03/14 13:54:45;;;;;;;10.30;6.80;;;;;;;;;;5077705;28;20128;-74
2024/03/14 13:57:11;;;;;;;10.40;7.18;;;;;;;;;;5070263;28;20041;-74
2024/03/14 13:59:41;;;;;;;11.93;7.65;;;;;;;;;;5071565;28;20630;-74
2024/03/14 14:02:11;;;;;;;13.43;7.95;;;;;;;;;;5073861;28;20038;-74
2024/03/14 14:04:37;;;;;;;10.88;7.72;;;;;;;;;;5075180;28;20118;-74
2024/03/14 14:07:03;;;;;;;10.35;6.93;;;;;;;;;;5071350;28;20128;-74
2024/03/14 14:09:28;;;;;;;10.40;6.30;;;;;;;;;;5071727;28;20149;-74
2024/03/14 14:11:54;;;;;;;9.10;5.93;;;;;;;;;;5073989;28;20028;-74
2024/03/14 14:14:20;;;;;;;9.07;6.10;;;;;;;;;;5071965;28;20037;-74
2024/03/14 14:16:47;;;;;;;8.20;5.53;;;;;;;;;;5071586;28;20040;-74
2024/03/14 14:19:13;;;;;;;8.48;6.18;;;;;;;;;;5071214;28;20043;-74